Time;durP1;ratioP1;P1;durP2;ratioP2;P2;SDS_P1;SDS_P2;PMS_P1;PMS_P2;Temp;Humidity;BMP_temperature;BMP_pressure;BME280_temperature;BME280_humidity;BME280_pressure;Samples;Min_cycle;Max_cycle;Signal;HPM_P1;HPM_P2
2021/04/20 00:01:39;;;;;;;1.60;1.10;;;;;;;5.39;96.20;96954.44;5054839;28;20261;-79
2021/04/20 00:04:06;;;;;;;1.10;0.73;;;;;;;5.34;96.11;96953.13;5055126;28;20198;-80
2021/04/20 00:06:34;;;;;;;1.10;1.00;;;;;;;5.45;95.86;96956.59;5055039;28;20202;-79
2021/04/20 00:09:01;;;;;;;1.37;1.10;;;;;;;5.46;95.78;96957.44;5054959;28;20301;-79
2021/04/20 00:11:28;;;;;;;1.63;0.90;;;;;;;5.37;95.73;96953.72;5272853;23;20601;-83
2021/04/20 00:13:55;;;;;;;1.60;0.97;;;;;;;5.43;95.54;96961.09;5015137;28;20206;-83
2021/04/20 00:16:21;;;;;;;0.67;0.67;;;;;;;5.56;95.34;96966.25;5015524;28;20278;-83
2021/04/20 00:18:49;;;;;;;0.70;0.70;;;;;;;5.56;95.45;96965.44;5015112;28;20191;-83
2021/04/20 00:21:17;;;;;;;1.23;0.80;;;;;;;5.39;95.64;96959.66;5015005;28;20318;-83
2021/04/20 00:23:44;;;;;;;2.73;0.80;;;;;;;5.33;95.70;96952.25;5015254;28;20266;-83
2021/04/20 00:26:11;;;;;;;0.60;0.60;;;;;;;5.34;95.64;96959.16;5015187;28;20939;-83
2021/04/20 00:28:37;;;;;;;0.80;0.80;;;;;;;5.29;95.61;96968.22;5014992;28;20286;-84
2021/04/20 00:31:04;;;;;;;0.60;0.60;;;;;;;5.23;95.60;96962.53;5015467;28;20231;-83
2021/04/20 00:33:31;;;;;;;0.73;0.73;;;;;;;5.41;95.28;96960.38;5013894;28;20298;-83
2021/04/20 00:35:59;;;;;;;0.70;0.70;;;;;;;5.29;95.49;96961.25;5014801;28;20290;-83
2021/04/20 00:38:26;;;;;;;1.20;0.90;;;;;;;5.19;95.55;96960.22;5014784;28;20234;-83
2021/04/20 00:40:52;;;;;;;1.00;0.77;;;;;;;5.33;95.30;96962.69;5014554;28;20258;-83
2021/04/20 00:43:33;;;;;;;1.30;0.87;;;;;;;5.16;95.48;96965.66;5013816;28;20574;-84
2021/04/20 00:46:00;;;;;;;0.60;0.60;;;;;;;5.22;95.42;96971.25;5014054;28;20279;-83
2021/04/20 00:48:26;;;;;;;0.60;0.60;;;;;;;5.20;95.41;96964.50;5011939;28;20206;-83
2021/04/20 00:50:53;;;;;;;0.90;0.70;;;;;;;5.20;95.40;96967.13;5012431;28;20739;-83
2021/04/20 00:53:21;;;;;;;1.17;0.97;;;;;;;5.13;95.43;96965.88;5013513;28;20763;-83
2021/04/20 00:55:48;;;;;;;0.60;0.60;;;;;;;5.14;95.28;96962.34;5014574;28;20200;-83
2021/04/20 00:58:15;;;;;;;0.80;0.73;;;;;;;5.15;95.19;96964.81;5013458;28;20199;-83
2021/04/20 01:00:42;;;;;;;0.53;0.50;;;;;;;5.12;95.16;96961.59;5013102;28;20865;-84
2021/04/20 01:03:08;;;;;;;0.60;0.60;;;;;;;5.03;95.17;96959.66;5011919;28;20246;-83
2021/04/20 01:05:38;;;;;;;0.90;0.87;;;;;;;5.17;94.86;96973.38;5003484;28;20199;-83
2021/04/20 01:08:08;;;;;;;0.73;0.73;;;;;;;5.23;94.75;96969.50;5012954;28;20203;-83
2021/04/20 01:10:38;;;;;;;1.07;0.70;;;;;;;5.28;94.71;96972.63;5014394;28;20227;-83
2021/04/20 01:13:06;;;;;;;0.33;0.33;;;;;;;5.13;94.90;96976.31;5014056;28;20679;-83
2021/04/20 01:15:33;;;;;;;2.57;1.37;;;;;;;5.04;94.99;96974.34;5013761;28;20214;-83
2021/04/20 01:18:10;;;;;;;0.60;0.60;;;;;;;5.15;94.75;96982.22;5013289;28;20652;-83
2021/04/20 01:20:37;;;;;;;0.40;0.40;;;;;;;5.05;94.83;96981.22;5013211;28;20207;-82
2021/04/20 01:23:06;;;;;;;0.50;0.50;;;;;;;5.10;94.59;96982.56;5013993;28;20195;-82
2021/04/20 01:25:34;;;;;;;0.70;0.70;;;;;;;5.16;94.43;96983.88;5014066;28;20259;-82
2021/04/20 01:28:01;;;;;;;1.87;0.60;;;;;;;5.08;94.51;96986.22;5013635;28;20290;-83
2021/04/20 01:30:28;;;;;;;0.70;0.70;;;;;;;5.08;94.45;96984.44;5014123;28;20199;-82
2021/04/20 01:32:55;;;;;;;0.60;0.60;;;;;;;5.11;94.37;96988.59;5014088;28;20282;-82
2021/04/20 01:35:22;;;;;;;1.13;1.03;;;;;;;5.10;94.30;96995.59;5013467;28;20290;-82
2021/04/20 01:37:48;;;;;;;0.87;0.87;;;;;;;5.09;94.24;96990.47;5013586;28;20200;-83
2021/04/20 01:40:16;;;;;;;1.30;0.80;;;;;;;5.10;94.26;96995.59;5013545;28;20314;-83
2021/04/20 01:42:44;;;;;;;1.47;0.80;;;;;;;5.21;94.08;97002.66;5013544;28;20239;-83
2021/04/20 01:45:12;;;;;;;0.70;0.70;;;;;;;5.14;94.25;97010.06;5013649;28;20200;-84
2021/04/20 01:47:39;;;;;;;0.60;0.60;;;;;;;5.12;94.35;97009.31;5013400;28;20287;-83
2021/04/20 01:50:07;;;;;;;0.57;0.57;;;;;;;4.93;94.63;97003.75;5013429;28;20211;-83
2021/04/20 01:52:34;;;;;;;5.27;1.77;;;;;;;4.99;94.49;97000.72;5013348;28;20702;-83
2021/04/20 01:55:01;;;;;;;0.40;0.40;;;;;;;4.99;94.41;97001.56;5013064;28;20289;-82
2021/04/20 01:57:30;;;;;;;0.53;0.53;;;;;;;5.00;94.37;97000.59;5013284;28;20782;-82
2021/04/20 01:59:58;;;;;;;0.70;0.70;;;;;;;5.13;94.30;97010.19;5013284;28;20279;-82
2021/04/20 02:02:25;;;;;;;0.43;0.43;;;;;;;5.14;94.42;97004.84;5012901;28;20199;-82
2021/04/20 02:04:52;;;;;;;0.70;0.70;;;;;;;5.30;94.32;97003.78;5013328;28;20226;-82
2021/04/20 02:07:19;;;;;;;0.30;0.30;;;;;;;5.19;94.58;97014.94;5013210;28;20319;-83
2021/04/20 02:09:46;;;;;;;0.90;0.90;;;;;;;5.11;94.68;97005.06;5013543;28;20195;-82
2021/04/20 02:12:14;;;;;;;1.10;1.00;;;;;;;4.95;94.89;96997.50;5012787;28;20741;-83
2021/04/20 02:14:41;;;;;;;1.30;1.03;;;;;;;4.98;94.79;97006.84;5013263;28;20274;-82
2021/04/20 02:17:09;;;;;;;1.00;0.90;;;;;;;4.99;94.73;97005.94;5013089;28;20195;-83
2021/04/20 02:19:36;;;;;;;0.80;0.80;;;;;;;4.98;94.80;97005.06;5005054;28;20206;-83
2021/04/20 02:22:04;;;;;;;1.13;0.70;;;;;;;5.16;94.58;97012.56;5012711;28;20258;-83
2021/04/20 02:24:30;;;;;;;0.77;0.77;;;;;;;5.22;94.72;97017.34;5012847;28;20199;-82
2021/04/20 02:26:58;;;;;;;0.80;0.80;;;;;;;5.00;95.13;97008.41;5012611;28;20274;-82
2021/04/20 02:29:25;;;;;;;0.60;0.60;;;;;;;5.22;94.91;97012.97;5012852;28;20222;-82
2021/04/20 02:31:53;;;;;;;0.80;0.80;;;;;;;5.08;95.20;97009.66;5012715;28;20285;-82
2021/04/20 02:34:21;;;;;;;0.50;0.50;;;;;;;5.22;95.04;97014.75;5013079;28;20199;-82
2021/04/20 02:36:51;;;;;;;0.77;0.70;;;;;;;5.16;95.20;97008.19;5012349;28;20199;-82
2021/04/20 02:39:19;;;;;;;0.60;0.60;;;;;;;5.14;95.46;97010.06;5013325;28;20641;-82
2021/04/20 02:41:47;;;;;;;0.80;0.80;;;;;;;5.03;95.77;97007.38;5012679;28;20313;-82
2021/04/20 02:44:14;;;;;;;1.40;0.90;;;;;;;5.04;95.88;97013.41;5012607;28;20762;-82
2021/04/20 02:46:43;;;;;;;0.80;0.80;;;;;;;5.22;95.67;97012.97;5012299;28;20195;-81
2021/04/20 02:49:10;;;;;;;1.13;1.03;;;;;;;5.15;95.97;97010.91;5012777;28;20203;-82
2021/04/20 02:51:39;;;;;;;1.60;1.33;;;;;;;5.10;96.04;97011.22;5004510;28;20196;-82
2021/04/20 02:54:07;;;;;;;0.60;0.60;;;;;;;4.90;96.37;97006.56;5012338;28;20664;-82
2021/04/20 02:56:36;;;;;;;1.97;0.87;;;;;;;4.99;96.17;97006.75;5012476;28;20207;-82
2021/04/20 02:59:05;;;;;;;1.53;1.20;;;;;;;5.06;96.18;97008.91;5012259;28;20227;-82
2021/04/20 03:01:35;;;;;;;0.93;0.93;;;;;;;4.95;96.32;97007.91;5012249;28;20230;-82
2021/04/20 03:04:03;;;;;;;0.60;0.60;;;;;;;4.96;96.36;97014.78;5012289;28;20275;-82
2021/04/20 03:06:30;;;;;;;0.70;0.70;;;;;;;5.00;96.40;97018.84;5011998;28;20287;-82
2021/04/20 03:08:58;;;;;;;0.50;0.50;;;;;;;4.81;96.67;97013.22;5012172;28;20199;-83
2021/04/20 03:11:33;;;;;;;0.70;0.70;;;;;;;4.75;96.58;96998.84;5011347;28;20358;-82
2021/04/20 03:14:03;;;;;;;0.70;0.70;;;;;;;4.81;96.31;97008.00;5012560;28;20188;-82
2021/04/20 03:16:30;;;;;;;0.23;0.23;;;;;;;4.84;96.21;97010.41;5011979;28;20192;-82
2021/04/20 03:18:58;;;;;;;0.80;0.80;;;;;;;4.90;96.14;97017.81;5010832;28;20741;-83
2021/04/20 03:21:25;;;;;;;0.70;0.70;;;;;;;4.86;96.17;97013.75;5007926;28;20302;-83
2021/04/20 03:23:53;;;;;;;0.67;0.67;;;;;;;4.90;96.13;97022.19;5011151;28;20223;-83
2021/04/20 03:26:39;;;;;;;1.73;1.07;;;;;;;5.08;95.90;97014.88;5010958;28;20568;-83
2021/04/20 03:29:07;;;;;;;1.03;0.93;;;;;;;5.04;96.13;97026.44;5010974;28;20188;-83
2021/04/20 03:31:38;;;;;;;2.07;1.63;;;;;;;4.81;96.48;97020.19;5030557;28;20286;-83
2021/04/20 03:34:15;;;;;;;0.90;0.80;;;;;;;4.87;96.26;97020.63;5030259;28;20753;-83
2021/04/20 03:36:46;;;;;;;1.13;1.07;;;;;;;4.87;96.28;97028.44;5030842;28;20190;-81
2021/04/20 03:39:17;;;;;;;1.63;1.50;;;;;;;5.06;95.97;97034.97;5030493;28;20187;-83
2021/04/20 03:41:51;;;;;;;3.23;2.03;;;;;;;5.05;96.08;97041.13;5030414;28;20210;-83
2021/04/20 03:44:25;;;;;;;1.63;1.50;;;;;;;5.02;96.18;97042.16;5030729;28;20179;-83
2021/04/20 03:46:55;;;;;;;3.20;1.50;;;;;;;5.13;96.05;97038.84;5029858;28;20277;-83
2021/04/20 03:49:27;;;;;;;0.87;0.87;;;;;;;5.00;96.34;97047.50;5030836;28;20626;-82
2021/04/20 03:51:57;;;;;;;1.43;0.90;;;;;;;5.12;96.47;97050.19;5030378;28;20270;-82
2021/04/20 03:54:26;;;;;;;0.50;0.50;;;;;;;5.10;96.78;97054.69;5030814;28;20206;-82
2021/04/20 03:56:58;;;;;;;2.73;0.40;;;;;;;5.17;96.78;97051.56;5030310;28;20426;-82
2021/04/20 03:59:26;;;;;;;0.70;0.70;;;;;;;5.16;97.14;97060.31;5030030;28;20198;-83
2021/04/20 04:01:53;;;;;;;1.13;1.03;;;;;;;5.14;97.56;97061.34;5030206;28;20266;-82
2021/04/20 04:04:24;;;;;;;0.97;0.97;;;;;;;4.92;98.02;97057.63;5030368;28;20286;-83
2021/04/20 04:06:53;;;;;;;1.50;1.40;;;;;;;5.15;97.73;97057.81;5030559;28;20190;-82
2021/04/20 04:09:20;;;;;;;1.10;1.00;;;;;;;5.27;97.55;97064.78;5030370;28;20198;-83
2021/04/20 04:11:52;;;;;;;1.83;0.80;;;;;;;5.39;97.59;97071.75;5029859;28;20325;-83
2021/04/20 04:14:22;;;;;;;0.77;0.77;;;;;;;5.45;97.73;97070.50;5030035;28;20238;-82
2021/04/20 04:16:50;;;;;;;1.27;1.20;;;;;;;5.48;97.94;97072.88;5030186;28;20336;-83
2021/04/20 04:19:18;;;;;;;1.83;0.83;;;;;;;5.43;98.26;97072.34;5030195;28;20199;-83
2021/04/20 04:21:48;;;;;;;0.63;0.63;;;;;;;5.39;98.45;97076.94;5030176;28;20278;-83
2021/04/20 04:24:18;;;;;;;1.27;1.17;;;;;;;5.39;98.67;97073.53;5033384;28;20245;-83
2021/04/20 04:26:50;;;;;;;1.10;1.10;;;;;;;5.58;98.65;97073.09;5033892;28;20563;-82
2021/04/20 04:29:20;;;;;;;1.67;1.47;;;;;;;5.37;99.70;97078.84;5034023;28;20236;-82
2021/04/20 04:31:48;;;;;;;3.00;2.17;;;;;;;5.42;100.00;97087.16;5033676;28;20209;-82
2021/04/20 04:34:17;;;;;;;2.40;1.87;;;;;;;5.56;100.00;97088.00;5033712;28;20205;-82
2021/04/20 04:36:45;;;;;;;1.13;1.10;;;;;;;5.51;100.00;97095.28;5033751;28;20221;-84
2021/04/20 04:39:14;;;;;;;2.37;2.07;;;;;;;5.48;100.00;97093.75;5033191;28;20341;-82
2021/04/20 04:41:41;;;;;;;2.80;1.93;;;;;;;5.56;100.00;97093.19;5033319;28;20233;-82
2021/04/20 04:44:10;;;;;;;1.97;1.87;;;;;;;5.46;100.00;97088.63;5033944;28;20205;-81
2021/04/20 04:46:38;;;;;;;3.63;2.90;;;;;;;5.58;100.00;97088.72;5034603;28;20314;-82
2021/04/20 04:49:06;;;;;;;2.20;2.00;;;;;;;5.65;100.00;97092.56;5034498;28;20203;-81
2021/04/20 04:51:35;;;;;;;4.43;3.97;;;;;;;5.73;100.00;97090.25;5034401;28;20292;-81
2021/04/20 04:54:03;;;;;;;4.53;3.70;;;;;;;5.65;100.00;97088.19;5034037;28;20198;-83
2021/04/20 04:56:30;;;;;;;3.10;2.80;;;;;;;5.75;100.00;97088.38;5034366;28;20217;-82
2021/04/20 04:59:00;;;;;;;2.77;2.43;;;;;;;5.79;100.00;97094.19;5034300;28;20286;-82
2021/04/20 05:01:28;;;;;;;4.40;3.90;;;;;;;5.85;100.00;97097.19;5034596;28;20313;-82
2021/04/20 05:03:56;;;;;;;8.20;6.63;;;;;;;5.77;100.00;97096.91;5034094;28;20285;-82
2021/04/20 05:06:24;;;;;;;8.90;7.40;;;;;;;5.81;100.00;97095.75;5034257;28;20199;-82
2021/04/20 05:08:51;;;;;;;6.07;5.00;;;;;;;5.84;100.00;97090.31;5034426;28;20205;-82
2021/04/20 05:11:18;;;;;;;4.03;3.63;;;;;;;5.86;100.00;97098.03;5033874;28;20289;-82
2021/04/20 05:13:45;;;;;;;3.73;3.43;;;;;;;5.93;100.00;97096.69;5033387;28;20183;-82
2021/04/20 05:16:14;;;;;;;2.90;2.60;;;;;;;5.86;100.00;97098.88;5034170;28;20245;-82
2021/04/20 05:18:41;;;;;;;2.77;2.40;;;;;;;5.89;100.00;97095.22;5033992;28;20285;-82
2021/04/20 05:21:09;;;;;;;2.53;2.33;;;;;;;5.94;100.00;97101.78;5034202;28;20664;-82
2021/04/20 05:23:36;;;;;;;3.43;2.70;;;;;;;5.98;100.00;97098.97;5033779;28;20679;-82
2021/04/20 05:26:03;;;;;;;3.13;2.83;;;;;;;6.17;100.00;97092.31;5033864;28;20289;-81
2021/04/20 05:28:30;;;;;;;2.30;2.10;;;;;;;6.11;100.00;97092.75;5033465;28;20206;-81
2021/04/20 05:30:57;;;;;;;2.37;2.13;;;;;;;5.92;100.00;97090.66;5033778;28;20202;-82
2021/04/20 05:33:24;;;;;;;1.70;1.60;;;;;;;5.98;100.00;97093.75;5033702;28;20199;-81
2021/04/20 05:35:51;;;;;;;2.00;1.90;;;;;;;5.90;100.00;97091.66;5033154;28;20203;-82
2021/04/20 05:38:20;;;;;;;1.90;1.80;;;;;;;6.02;100.00;97088.19;5033461;28;20294;-82
2021/04/20 05:40:47;;;;;;;2.33;1.93;;;;;;;5.98;100.00;97094.56;5033559;28;20222;-82
2021/04/20 05:43:14;;;;;;;1.90;1.70;;;;;;;6.02;100.00;97093.41;5033598;28;20242;-82
2021/04/20 05:45:41;;;;;;;2.87;2.47;;;;;;;6.21;100.00;97087.72;5033593;28;20336;-82
2021/04/20 05:48:09;;;;;;;2.60;2.40;;;;;;;6.15;100.00;97085.53;5033461;28;20202;-82
2021/04/20 05:50:36;;;;;;;2.40;2.20;;;;;;;6.25;100.00;97088.31;5033408;28;20700;-81
2021/04/20 05:53:03;;;;;;;3.33;2.80;;;;;;;6.31;100.00;97083.47;5033506;28;20206;-82
2021/04/20 05:55:31;;;;;;;6.17;3.33;;;;;;;6.58;100.00;97087.59;5033829;28;20201;-82
2021/04/20 05:57:58;;;;;;;4.13;2.80;;;;;;;6.80;100.00;97087.69;5033453;28;20721;-81
2021/04/20 06:00:26;;;;;;;3.50;3.20;;;;;;;6.85;100.00;97085.53;5033059;28;20412;-81
2021/04/20 06:02:56;;;;;;;2.70;2.50;;;;;;;7.02;100.00;97081.66;5033100;28;20623;-81
2021/04/20 06:05:25;;;;;;;2.87;2.67;;;;;;;7.01;100.00;97068.72;5033997;28;20198;-81
2021/04/20 06:07:55;;;;;;;4.50;3.87;;;;;;;7.06;100.00;97061.34;5032839;28;20194;-82
2021/04/20 06:10:22;;;;;;;3.37;3.07;;;;;;;7.15;100.00;97043.19;5033312;28;20241;-81
2021/04/20 06:12:51;;;;;;;2.57;2.20;;;;;;;7.45;100.00;97035.66;5032754;28;20726;-81
2021/04/20 06:15:21;;;;;;;2.70;1.77;;;;;;;7.47;100.00;97010.25;5032980;28;20329;-81
2021/04/20 06:17:50;;;;;;;2.03;1.90;;;;;;;7.34;100.00;96976.38;5032885;28;20198;-81
2021/04/20 06:20:17;;;;;;;2.37;2.17;;;;;;;7.34;100.00;96931.91;5033298;28;20649;-80
2021/04/20 06:22:47;;;;;;;2.73;2.53;;;;;;;7.45;100.00;96908.38;5033115;28;20227;-81
2021/04/20 06:25:16;;;;;;;3.00;2.70;;;;;;;7.56;100.00;96886.56;5033152;28;20285;-81
2021/04/20 06:27:44;;;;;;;2.27;2.10;;;;;;;7.59;100.00;96875.88;5032312;28;20203;-81
2021/04/20 06:30:13;;;;;;;1.73;1.63;;;;;;;7.75;100.00;96862.34;5032650;28;20199;-81
2021/04/20 06:32:41;;;;;;;2.50;2.30;;;;;;;7.68;100.00;96848.09;5032857;28;20643;-80
2021/04/20 06:35:11;;;;;;;2.20;2.03;;;;;;;7.55;100.00;96833.44;5032692;28;20202;-80
2021/04/20 06:37:40;;;;;;;2.83;2.63;;;;;;;7.85;100.00;96824.81;5032541;28;20199;-80
2021/04/20 06:40:11;;;;;;;2.60;2.40;;;;;;;7.59;100.00;96815.69;5032525;28;20730;-81
2021/04/20 06:42:41;;;;;;;3.07;2.87;;;;;;;7.65;100.00;96812.56;5032380;28;20294;-81
2021/04/20 06:45:12;;;;;;;3.23;3.00;;;;;;;7.66;100.00;96803.75;5031414;28;20277;-84
2021/04/20 06:47:44;;;;;;;2.73;2.53;;;;;;;7.84;100.00;96797.00;5031011;28;20570;-81
2021/04/20 06:50:16;;;;;;;2.87;2.67;;;;;;;7.90;100.00;96793.03;5032519;28;20229;-81
2021/04/20 06:52:49;;;;;;;2.20;2.10;;;;;;;7.95;100.00;96792.63;5032340;28;20183;-81
2021/04/20 06:55:27;;;;;;;2.27;2.07;;;;;;;7.96;100.00;96773.34;5032208;28;20187;-82
2021/04/20 06:58:05;;;;;;;3.17;2.87;;;;;;;8.03;100.00;96771.88;5032538;28;20273;-82
2021/04/20 07:00:41;;;;;;;5.80;3.43;;;;;;;8.12;100.00;96767.66;5032264;28;20274;-81
2021/04/20 07:03:16;;;;;;;4.80;4.40;;;;;;;8.11;100.00;96758.97;5031947;28;20186;-81
2021/04/20 07:05:47;;;;;;;5.40;4.90;;;;;;;8.25;100.00;96748.16;5032617;28;20190;-81
2021/04/20 07:08:21;;;;;;;5.70;5.20;;;;;;;8.44;100.00;96730.84;5032146;28;20190;-81
2021/04/20 07:10:50;;;;;;;9.67;8.10;;;;;;;8.52;100.00;96728.38;5032187;28;20186;-82
2021/04/20 07:13:21;;;;;;;6.63;6.03;;;;;;;8.36;100.00;96723.63;5031887;28;20655;-82
2021/04/20 07:15:53;;;;;;;8.07;7.27;;;;;;;8.53;100.00;96714.34;5031970;28;20216;-82
2021/04/20 07:19:07;;;;;;;14.10;9.70;;;;;;;8.60;100.00;96699.72;5031839;28;20187;-82
2021/04/20 07:21:53;;;;;;;11.47;9.70;;;;;;;8.61;100.00;96693.53;5015251;28;20265;-82
2021/04/20 07:24:21;;;;;;;14.77;11.23;;;;;;;8.80;100.00;96680.44;5032083;28;20229;-81
2021/04/20 07:27:06;;;;;;;24.33;17.20;;;;;;;9.07;100.00;96675.47;5031895;28;20195;-82
2021/04/20 07:29:51;;;;;;;28.80;18.77;;;;;;;8.82;100.00;96667.19;5032390;28;20269;-82
2021/04/20 07:32:32;;;;;;;7.53;6.23;;;;;;;8.61;100.00;96654.22;5032185;28;20187;-82
2021/04/20 07:35:20;;;;;;;7.93;7.17;;;;;;;8.86;100.00;96646.78;5033827;28;20714;-82
2021/04/20 07:37:49;;;;;;;7.10;6.43;;;;;;;8.98;100.00;96629.94;5031833;28;20187;-82
2021/04/20 07:40:44;;;;;;;6.97;6.27;;;;;;;9.16;100.00;96625.63;5032223;28;20245;-82
2021/04/20 07:43:35;;;;;;;5.97;5.37;;;;;;;9.34;100.00;96623.09;5032077;28;20194;-82
2021/04/20 07:46:06;;;;;;;12.17;10.87;;;;;;;9.46;100.00;96619.34;5031675;28;20240;-81
2021/04/20 07:48:43;;;;;;;18.73;13.43;;;;;;;9.24;100.00;96609.19;5031931;28;20635;-82
2021/04/20 07:51:20;;;;;;;10.27;7.03;;;;;;;9.10;100.00;96596.53;5031634;28;20189;-81
2021/04/20 07:53:59;;;;;;;9.60;7.93;;;;;;;9.29;100.00;96589.44;5031541;28;20633;-82
2021/04/20 07:56:31;;;;;;;24.00;17.27;;;;;;;9.33;100.00;96581.28;5031476;28;20190;-82
2021/04/20 07:59:04;;;;;;;46.43;33.20;;;;;;;9.35;100.00;96576.72;5034519;28;20194;-82
2021/04/20 08:01:42;;;;;;;12.33;9.73;;;;;;;9.21;100.00;96570.97;5035440;28;20272;-81
2021/04/20 08:04:27;;;;;;;11.20;10.00;;;;;;;9.23;100.00;96569.03;5035639;28;20662;-81
2021/04/20 08:07:00;;;;;;;9.23;8.33;;;;;;;9.36;100.00;96575.75;5035126;28;20187;-81
2021/04/20 08:09:32;;;;;;;11.50;10.40;;;;;;;9.32;100.00;96569.97;5035483;28;20187;-81
2021/04/20 08:12:05;;;;;;;11.63;9.20;;;;;;;9.07;100.00;96565.34;5035188;28;20705;-81
2021/04/20 08:14:42;;;;;;;9.80;6.90;;;;;;;9.16;100.00;96562.69;5035420;28;20269;-81
2021/04/20 08:17:12;;;;;;;10.70;6.53;;;;;;;9.01;100.00;96553.63;5035127;28;20288;-81
2021/04/20 08:19:43;;;;;;;7.40;6.60;;;;;;;8.99;100.00;96551.16;5035851;28;20191;-81
2021/04/20 08:22:15;;;;;;;9.03;7.27;;;;;;;8.94;100.00;96545.50;5034922;28;20250;-82
2021/04/20 08:24:50;;;;;;;8.33;7.43;;;;;;;8.99;100.00;96553.75;5035230;28;20277;-81
2021/04/20 08:27:26;;;;;;;8.67;7.87;;;;;;;8.91;100.00;96552.84;5034942;28;20333;-81
2021/04/20 08:29:57;;;;;;;7.77;7.03;;;;;;;8.99;100.00;96552.94;5035089;28;20191;-81
2021/04/20 08:32:28;;;;;;;7.83;7.07;;;;;;;9.03;100.00;96554.31;5034949;28;20214;-81
2021/04/20 08:35:02;;;;;;;8.90;8.03;;;;;;;9.11;100.00;96551.81;5035185;28;20191;-81
2021/04/20 08:37:43;;;;;;;19.53;15.53;;;;;;;9.24;100.00;96554.94;5034916;28;20189;-81
2021/04/20 08:40:20;;;;;;;16.17;13.17;;;;;;;9.26;100.00;96557.44;5034914;28;20186;-81
2021/04/20 08:42:54;;;;;;;20.23;16.07;;;;;;;9.63;100.00;96548.69;5034441;28;20213;-82
2021/04/20 08:45:26;;;;;;;12.37;11.17;;;;;;;9.94;100.00;96557.09;5034802;28;20205;-82
2021/04/20 08:48:04;;;;;;;8.80;8.00;;;;;;;9.94;100.00;96551.84;5034624;28;20274;-82
2021/04/20 08:50:38;;;;;;;8.00;7.20;;;;;;;10.08;100.00;96543.47;5034367;28;20273;-82
2021/04/20 08:53:19;;;;;;;7.97;7.27;;;;;;;10.12;100.00;96531.69;5034513;28;20574;-82
2021/04/20 08:55:52;;;;;;;9.03;8.13;;;;;;;10.16;100.00;96527.78;5034528;28;20222;-81
2021/04/20 08:58:44;;;;;;;9.37;8.57;;;;;;;10.27;100.00;96525.94;5034361;28;20226;-81
2021/04/20 09:01:21;;;;;;;9.27;8.37;;;;;;;10.34;100.00;96527.81;5034139;28;20202;-83
2021/04/20 09:04:03;;;;;;;8.53;7.67;;;;;;;10.06;100.00;96521.78;5034137;28;20274;-82
2021/04/20 09:06:35;;;;;;;9.23;8.33;;;;;;;10.14;100.00;96519.22;5034619;28;20606;-82
2021/04/20 09:09:05;;;;;;;9.80;8.40;;;;;;;10.26;100.00;96521.69;5033368;28;20283;-82
2021/04/20 09:11:36;;;;;;;10.23;9.13;;;;;;;10.15;100.00;96520.09;5033890;28;20714;-82
2021/04/20 09:14:07;;;;;;;7.97;7.27;;;;;;;10.24;100.00;96519.97;5034090;28;20560;-82
2021/04/20 09:16:44;;;;;;;8.70;7.83;;;;;;;10.46;100.00;96513.50;5033950;28;20279;-82
2021/04/20 09:19:13;;;;;;;9.50;8.63;;;;;;;10.56;100.00;96508.13;5034071;28;20183;-84
2021/04/20 09:21:54;;;;;;;9.27;8.40;;;;;;;10.52;100.00;96511.22;5033522;28;20313;-83
2021/04/20 09:24:23;;;;;;;9.00;8.13;;;;;;;10.38;100.00;96513.41;5033948;28;20271;-84
2021/04/20 09:27:00;;;;;;;9.47;8.67;;;;;;;10.32;100.00;96515.81;5033632;28;20240;-83
2021/04/20 09:29:30;;;;;;;10.37;9.30;;;;;;;10.36;100.00;96506.66;5033876;28;20187;-83
2021/04/20 09:31:59;;;;;;;8.60;7.87;;;;;;;10.15;100.00;96507.78;5033374;28;20635;-83
2021/04/20 09:34:31;;;;;;;10.07;9.03;;;;;;;10.23;100.00;96507.84;5033685;28;20289;-83
2021/04/20 09:36:59;;;;;;;11.40;10.30;;;;;;;10.65;100.00;96507.22;5033565;28;20226;-83
2021/04/20 09:39:28;;;;;;;9.90;8.90;;;;;;;10.78;100.00;96500.75;5033687;28;20294;-83
2021/04/20 09:41:57;;;;;;;10.37;9.13;;;;;;;10.86;100.00;96503.41;5033616;28;20262;-83
2021/04/20 09:44:35;;;;;;;9.17;8.30;;;;;;;10.75;100.00;96508.94;5033392;28;20702;-83
2021/04/20 09:47:20;;;;;;;9.93;9.07;;;;;;;10.95;100.00;96507.75;5033445;28;20281;-83
2021/04/20 09:50:03;;;;;;;7.20;6.50;;;;;;;10.77;100.00;96504.34;5033884;28;20191;-83
2021/04/20 09:53:01;;;;;;;8.87;8.03;;;;;;;10.87;100.00;96510.31;5033256;28;20270;-83
2021/04/20 09:55:33;;;;;;;9.33;8.27;;;;;;;10.83;100.00;96508.97;5033376;28;20201;-83
2021/04/20 09:58:03;;;;;;;7.77;7.07;;;;;;;11.06;100.00;96499.59;5033351;28;20274;-83
2021/04/20 10:00:31;;;;;;;9.63;8.67;;;;;;;11.09;100.00;96507.19;5033122;28;20198;-83
2021/04/20 10:03:18;;;;;;;8.17;6.73;;;;;;;10.98;100.00;96509.22;5032975;28;20318;-83
2021/04/20 10:06:11;;;;;;;7.13;6.47;;;;;;;10.68;100.00;96516.59;5033588;28;20195;-83
2021/04/20 10:08:56;;;;;;;3.87;3.57;;;;;;;9.87;100.00;96524.53;5033367;28;20194;-83
2021/04/20 10:11:33;;;;;;;8.00;4.30;;;;;;;9.71;100.00;96552.25;5032777;28;20190;-80
2021/04/20 10:14:12;;;;;;;5.97;5.37;;;;;;;9.76;100.00;96570.19;5033311;28;20194;-81
2021/04/20 10:16:47;;;;;;;4.93;4.53;;;;;;;9.93;100.00;96589.59;5033371;28;20183;-81
2021/04/20 10:19:23;;;;;;;4.50;4.10;;;;;;;10.03;100.00;96603.50;5032956;28;20269;-80
2021/04/20 10:22:19;;;;;;;4.63;4.23;;;;;;;10.01;100.00;96608.06;5032284;28;20699;-81
2021/04/20 10:24:59;;;;;;;5.80;5.30;;;;;;;10.58;100.00;96607.88;5033110;28;20253;-81
2021/04/20 10:27:28;;;;;;;4.90;4.50;;;;;;;10.61;100.00;96605.75;5032576;28;20231;-83
2021/04/20 10:30:01;;;;;;;5.30;4.90;;;;;;;10.96;100.00;96590.94;5032606;28;20234;-82
2021/04/20 10:32:31;;;;;;;5.17;4.70;;;;;;;11.35;100.00;96569.47;5032425;28;20187;-83
2021/04/20 10:35:00;;;;;;;5.63;5.23;;;;;;;12.06;100.00;96563.91;5032608;28;20197;-83
2021/04/20 10:37:34;;;;;;;5.83;5.33;;;;;;;12.03;100.00;96551.03;5032521;28;20289;-83
2021/04/20 10:40:06;;;;;;;4.87;4.47;;;;;;;12.29;100.00;96535.09;5032844;28;20191;-83
2021/04/20 10:42:34;;;;;;;7.70;5.37;;;;;;;12.37;100.00;96536.94;5032438;28;20298;-83
2021/04/20 10:45:01;;;;;;;6.17;5.57;;;;;;;12.17;100.00;96520.59;5032633;28;20203;-83
2021/04/20 10:47:30;;;;;;;6.03;5.43;;;;;;;12.08;100.00;96522.38;5032261;28;20201;-83
2021/04/20 10:49:59;;;;;;;9.50;8.60;;;;;;;11.84;100.00;96512.63;5032201;28;20206;-83
2021/04/20 10:52:31;;;;;;;9.40;8.60;;;;;;;11.51;100.00;96508.22;5032198;28;20682;-83
2021/04/20 10:55:03;;;;;;;5.53;5.03;;;;;;;11.50;100.00;96512.66;5032742;28;20588;-82
2021/04/20 10:57:32;;;;;;;7.07;6.47;;;;;;;11.27;100.00;96519.44;5032394;28;20292;-82
2021/04/20 11:00:02;;;;;;;5.13;4.73;;;;;;;11.25;100.00;96524.84;5032177;28;20205;-83
2021/04/20 11:02:36;;;;;;;5.00;4.57;;;;;;;11.00;100.00;96523.88;5032152;28;20213;-83
2021/04/20 11:05:04;;;;;;;4.30;3.90;;;;;;;10.88;100.00;96523.31;5031833;28;20194;-83
2021/04/20 11:07:35;;;;;;;4.33;3.90;;;;;;;10.78;100.00;96527.84;5031969;28;20289;-82
2021/04/20 11:10:05;;;;;;;4.90;4.27;;;;;;;10.94;100.00;96527.13;5032301;28;20182;-82
2021/04/20 11:12:33;;;;;;;3.43;3.23;;;;;;;11.15;100.00;96530.25;5031766;28;20616;-82
2021/04/20 11:15:00;;;;;;;4.27;3.97;;;;;;;11.36;100.00;96521.13;5032105;28;20572;-83
2021/04/20 11:17:34;;;;;;;5.57;5.03;;;;;;;11.40;100.00;96511.94;5031962;28;20230;-82
2021/04/20 11:20:09;;;;;;;5.50;5.00;;;;;;;11.71;100.00;96514.88;5032113;28;20190;-82
2021/04/20 11:22:40;;;;;;;5.57;4.90;;;;;;;11.72;100.00;96511.25;5032136;28;20206;-82
2021/04/20 11:25:19;;;;;;;5.67;4.63;;;;;;;11.36;100.00;96510.59;5031817;28;20273;-82
2021/04/20 11:27:49;;;;;;;7.57;5.07;;;;;;;11.40;100.00;96509.31;5031860;28;20663;-82
2021/04/20 11:30:18;;;;;;;5.93;5.33;;;;;;;11.56;100.00;96516.44;5032422;28;20197;-83
2021/04/20 11:32:49;;;;;;;4.83;4.37;;;;;;;11.41;100.00;96518.84;5032422;28;20242;-81
2021/04/20 11:35:20;;;;;;;4.60;4.20;;;;;;;11.15;100.00;96517.09;5036172;28;20694;-83
2021/04/20 11:37:49;;;;;;;4.53;4.23;;;;;;;10.98;100.00;96517.97;5035746;28;20193;-82
2021/04/20 11:40:28;;;;;;;6.87;6.17;;;;;;;11.17;100.00;96519.56;5035871;28;20203;-82
2021/04/20 11:42:57;;;;;;;5.43;5.00;;;;;;;11.23;100.00;96510.22;5035393;28;20210;-83
2021/04/20 11:45:27;;;;;;;6.77;6.17;;;;;;;11.52;100.00;96510.66;5035808;28;20238;-82
2021/04/20 11:47:59;;;;;;;5.57;5.07;;;;;;;11.34;100.00;96508.13;5035686;28;20237;-82
2021/04/20 11:50:29;;;;;;;5.40;4.90;;;;;;;11.45;100.00;96508.84;5035737;28;20222;-82
2021/04/20 11:52:58;;;;;;;5.60;5.10;;;;;;;11.88;100.00;96502.59;5035260;28;20568;-82